createdAt,value
2023-02-19T00:02:18.872Z,13.25
2023-02-19T00:05:16.542Z,13.27
2023-02-19T00:08:14.025Z,13.29
2023-02-19T00:11:12.067Z,13.31
2023-02-19T00:14:09.610Z,13.30
2023-02-19T00:17:07.381Z,13.30
2023-02-19T00:20:04.838Z,13.29
2023-02-19T00:23:02.513Z,13.28
2023-02-19T00:26:12.344Z,13.29
2023-02-19T00:29:15.220Z,13.28
2023-02-19T00:32:12.929Z,13.27
2023-02-19T00:35:10.387Z,13.26
2023-02-19T00:38:08.125Z,13.24
2023-02-19T00:41:19.209Z,13.24
2023-02-19T00:44:17.167Z,13.23
2023-02-19T00:47:14.739Z,13.22
2023-02-19T00:50:12.202Z,13.20
2023-02-19T00:53:09.838Z,13.19
2023-02-19T00:56:07.790Z,13.17
2023-02-19T00:59:05.495Z,13.15
2023-02-19T01:02:03.261Z,13.13
2023-02-19T01:05:00.766Z,13.11
2023-02-19T01:07:58.435Z,13.08
2023-02-19T01:10:55.910Z,13.05
2023-02-19T01:13:53.479Z,13.01
2023-02-19T01:16:50.944Z,12.99
2023-02-19T01:19:48.589Z,12.95
2023-02-19T01:22:46.074Z,12.95
2023-02-19T01:25:43.707Z,12.93
2023-02-19T01:28:41.450Z,12.91
2023-02-19T01:31:38.953Z,12.89
2023-02-19T01:34:36.737Z,12.87
2023-02-19T01:37:34.204Z,12.85
2023-02-19T01:40:31.980Z,12.82
2023-02-19T01:43:29.444Z,12.81
2023-02-19T01:46:28.054Z,12.78
2023-02-19T01:49:25.891Z,12.77
2023-02-19T01:52:23.358Z,12.75
2023-02-19T01:55:21.136Z,12.73
2023-02-19T01:58:18.640Z,12.71
2023-02-19T02:01:16.451Z,12.69
2023-02-19T02:04:14.077Z,12.67
2023-02-19T02:07:25.386Z,12.66
2023-02-19T02:10:23.249Z,12.64
2023-02-19T02:13:20.716Z,12.64
2023-02-19T02:16:18.365Z,12.62
2023-02-19T02:19:15.887Z,12.60
2023-02-19T02:22:13.880Z,12.57
2023-02-19T02:25:11.527Z,12.56
2023-02-19T02:28:08.972Z,12.54
2023-02-19T02:31:06.731Z,12.53
2023-02-19T02:34:04.215Z,12.51
2023-02-19T02:37:01.823Z,12.49
2023-02-19T02:39:59.269Z,12.48
2023-02-19T02:42:56.951Z,12.48
2023-02-19T02:45:54.775Z,12.46
2023-02-19T02:48:55.479Z,12.44
2023-02-19T02:51:53.114Z,12.41
2023-02-19T02:55:05.745Z,12.37
2023-02-19T02:58:03.511Z,12.31
2023-02-19T03:01:18.560Z,12.28
2023-02-19T03:04:16.256Z,12.25
2023-02-19T03:07:14.018Z,12.21
2023-02-19T03:10:11.471Z,12.19
2023-02-19T03:13:26.733Z,12.15
2023-02-19T03:16:43.001Z,12.12
2023-02-19T03:19:40.840Z,12.09
2023-02-19T03:22:38.583Z,12.05
2023-02-19T03:25:53.848Z,12.02
2023-02-19T03:29:09.507Z,11.97
2023-02-19T03:32:06.992Z,11.92
2023-02-19T03:35:04.694Z,11.90
2023-02-19T03:38:02.430Z,11.88
2023-02-19T03:40:59.881Z,11.86
2023-02-19T03:43:57.644Z,11.84
2023-02-19T03:46:55.105Z,11.82
2023-02-19T03:49:53.194Z,11.81
2023-02-19T03:52:50.635Z,11.78
2023-02-19T03:55:48.324Z,11.78
2023-02-19T03:58:45.937Z,11.77
2023-02-19T04:01:43.672Z,11.77
2023-02-19T04:04:41.363Z,11.76
2023-02-19T04:07:38.841Z,11.76
2023-02-19T04:10:36.656Z,11.78
2023-02-19T04:13:34.120Z,11.77
2023-02-19T04:16:32.039Z,11.78
2023-02-19T04:19:29.769Z,11.78
2023-02-19T04:22:27.246Z,11.77
2023-02-19T04:25:24.985Z,11.76
2023-02-19T04:28:22.434Z,11.75
2023-02-19T04:31:20.394Z,11.74
2023-02-19T04:34:17.995Z,11.74
2023-02-19T04:37:15.748Z,11.75
2023-02-19T04:40:13.597Z,11.76
2023-02-19T04:43:11.028Z,11.75
2023-02-19T04:46:08.784Z,11.72
2023-02-19T04:49:06.244Z,11.69
2023-02-19T04:52:03.943Z,11.67
2023-02-19T04:55:01.402Z,11.67
2023-02-19T04:57:59.178Z,11.65
2023-02-19T05:00:56.968Z,11.64
2023-02-19T05:03:54.432Z,11.63
2023-02-19T05:06:52.194Z,11.64
2023-02-19T05:09:49.639Z,11.63
2023-02-19T05:12:47.311Z,11.64
2023-02-19T05:15:44.794Z,11.64
2023-02-19T05:18:42.836Z,11.65
2023-02-19T05:21:40.707Z,11.66
2023-02-19T05:24:38.478Z,11.65
2023-02-19T05:27:35.920Z,11.63
2023-02-19T05:30:33.661Z,11.63
2023-02-19T05:33:31.310Z,11.60
2023-02-19T05:36:29.088Z,11.58
2023-02-19T05:39:26.770Z,11.56
2023-02-19T05:42:24.225Z,11.55
2023-02-19T05:45:21.867Z,11.54
2023-02-19T05:48:19.308Z,11.54
2023-02-19T05:51:16.925Z,11.53
2023-02-19T05:54:14.586Z,11.51
2023-02-19T05:57:12.049Z,11.49
2023-02-19T06:00:10.839Z,11.46
2023-02-19T06:03:08.320Z,11.44
2023-02-19T06:06:06.082Z,11.43
2023-02-19T06:09:03.517Z,11.41
2023-02-19T06:12:01.135Z,11.41
2023-02-19T06:14:58.593Z,11.40
2023-02-19T06:17:56.327Z,11.40
2023-02-19T06:20:54.222Z,11.41
2023-02-19T06:23:51.665Z,11.42
2023-02-19T06:26:49.290Z,11.44
2023-02-19T06:29:46.740Z,11.47
2023-02-19T06:32:44.375Z,11.50
2023-02-19T06:35:41.839Z,11.52
2023-02-19T06:38:39.507Z,11.55
2023-02-19T06:41:37.350Z,11.59
2023-02-19T06:44:34.797Z,11.62
2023-02-19T06:47:32.586Z,11.67
2023-02-19T06:50:30.016Z,11.71
2023-02-19T06:53:27.826Z,11.74
2023-02-19T06:56:25.415Z,11.77
2023-02-19T06:59:23.226Z,11.81
2023-02-19T07:02:20.769Z,11.84
2023-02-19T07:05:18.414Z,11.87
2023-02-19T07:08:17.657Z,11.90
2023-02-19T07:11:15.139Z,11.92
2023-02-19T07:14:12.759Z,11.96
2023-02-19T07:17:10.208Z,11.99
2023-02-19T07:20:07.856Z,12.02
2023-02-19T07:23:05.294Z,12.06
2023-02-19T07:26:02.980Z,12.10
2023-02-19T07:29:00.724Z,12.12
2023-02-19T07:31:58.230Z,12.14
2023-02-19T07:34:56.117Z,12.15
2023-02-19T07:37:53.543Z,12.15
2023-02-19T07:40:51.365Z,12.18
2023-02-19T07:43:48.817Z,12.20
2023-02-19T07:46:46.426Z,12.23
2023-02-19T07:49:44.242Z,12.28
2023-02-19T07:52:41.710Z,12.34
2023-02-19T07:55:39.338Z,12.39
2023-02-19T07:58:36.775Z,12.50
2023-02-19T08:01:52.322Z,12.59
2023-02-19T08:04:49.810Z,12.70
2023-02-19T08:07:47.538Z,12.84
2023-02-19T08:11:02.898Z,12.92
2023-02-19T08:14:00.532Z,12.92
2023-02-19T08:16:58.404Z,12.88
2023-02-19T08:19:55.871Z,12.81
2023-02-19T08:22:53.529Z,12.76
2023-02-19T08:25:50.973Z,12.69
2023-02-19T08:28:48.860Z,12.62
2023-02-19T08:31:46.432Z,12.60
2023-02-19T08:34:44.231Z,12.69
2023-02-19T08:37:41.662Z,12.81
2023-02-19T08:40:39.365Z,12.87
2023-02-19T08:43:36.827Z,12.96
2023-02-19T08:46:34.662Z,13.18
2023-02-19T08:49:32.379Z,13.38
2023-02-19T08:52:29.811Z,13.59
2023-02-19T08:55:27.578Z,13.88
2023-02-19T08:58:26.395Z,14.41
2023-02-19T09:01:24.364Z,14.61
2023-02-19T09:04:22.125Z,14.65
2023-02-19T09:07:19.601Z,14.57
2023-02-19T09:10:17.248Z,14.32
2023-02-19T09:13:14.688Z,14.09
2023-02-19T09:16:12.314Z,13.88
2023-02-19T09:19:09.859Z,13.67
2023-02-19T09:22:07.602Z,13.52
2023-02-19T09:25:05.121Z,13.47
2023-02-19T09:28:03.054Z,13.40
2023-02-19T09:31:00.598Z,13.25
2023-02-19T09:33:58.367Z,13.20
2023-02-19T09:36:55.986Z,13.39
2023-02-19T09:39:53.667Z,13.50
2023-02-19T09:42:51.443Z,13.54
2023-02-19T09:45:48.902Z,13.53
2023-02-19T09:48:47.427Z,13.47
2023-02-19T09:51:45.674Z,13.47
2023-02-19T09:54:43.540Z,13.52
2023-02-19T09:57:41.408Z,13.71
2023-02-19T10:00:39.370Z,13.93
2023-02-19T10:03:39.619Z,14.23
2023-02-19T10:06:40.344Z,14.63
2023-02-19T10:09:38.081Z,15.31
2023-02-19T10:12:36.486Z,17.23
2023-02-19T10:15:33.949Z,19.48
2023-02-19T10:18:33.236Z,21.03
2023-02-19T10:21:30.723Z,22.28
2023-02-19T10:24:28.532Z,23.50
2023-02-19T10:27:27.334Z,24.39
2023-02-19T10:30:26.481Z,25.73
2023-02-19T10:33:24.653Z,26.89
2023-02-19T10:36:22.984Z,27.95
2023-02-19T10:39:20.643Z,29.06
2023-02-19T10:42:18.876Z,30.10
2023-02-19T10:45:17.351Z,30.99
2023-02-19T10:48:14.895Z,31.38
2023-02-19T10:51:21.999Z,31.34
2023-02-19T10:54:21.705Z,31.43
2023-02-19T10:57:20.191Z,31.79
2023-02-19T11:00:22.212Z,31.91
2023-02-19T11:03:19.892Z,31.70
2023-02-19T11:06:18.265Z,31.17
2023-02-19T11:09:15.802Z,30.08
2023-02-19T11:12:13.467Z,29.37
2023-02-19T11:15:11.608Z,29.55
2023-02-19T11:18:09.114Z,29.83
2023-02-19T11:21:07.279Z,30.02
2023-02-19T11:24:04.832Z,30.34
2023-02-19T11:27:03.048Z,30.24
2023-02-19T11:30:01.046Z,30.33
2023-02-19T11:32:59.140Z,30.53
2023-02-19T11:35:57.516Z,30.56
2023-02-19T11:38:54.976Z,30.60
2023-02-19T11:41:57.717Z,30.33
2023-02-19T11:44:55.299Z,29.20
2023-02-19T11:47:55.647Z,27.80
2023-02-19T11:50:53.518Z,26.23
2023-02-19T11:53:51.921Z,24.73
2023-02-19T11:56:50.118Z,23.75
2023-02-19T11:59:47.889Z,22.80
2023-02-19T12:02:46.348Z,21.72
2023-02-19T12:05:44.022Z,20.66
2023-02-19T12:08:42.393Z,19.64
2023-02-19T12:11:40.432Z,18.69
2023-02-19T12:14:38.072Z,17.98
2023-02-19T12:17:38.785Z,17.33
2023-02-19T12:20:37.058Z,16.87
2023-02-19T12:23:34.791Z,16.53
2023-02-19T12:26:32.280Z,16.26
2023-02-19T12:29:30.630Z,16.21
2023-02-19T12:32:28.867Z,16.17
2023-02-19T12:35:27.084Z,16.17
2023-02-19T12:38:25.469Z,16.10
2023-02-19T12:41:23.548Z,15.96
2023-02-19T12:44:21.444Z,15.78
2023-02-19T12:47:19.036Z,15.63
2023-02-19T12:50:17.269Z,15.49
2023-02-19T12:53:15.267Z,15.32
2023-02-19T12:56:13.201Z,15.32
2023-02-19T12:59:12.609Z,15.49
2023-02-19T13:02:10.691Z,15.65
2023-02-19T13:05:10.005Z,15.76
2023-02-19T13:08:07.502Z,15.89
2023-02-19T13:11:05.895Z,16.02
2023-02-19T13:14:03.872Z,16.03
2023-02-19T13:17:01.950Z,15.96
2023-02-19T13:20:00.442Z,15.84
2023-02-19T13:23:15.866Z,15.68
2023-02-19T13:26:14.115Z,15.50
2023-02-19T13:29:11.988Z,15.31
2023-02-19T13:32:10.488Z,15.18
2023-02-19T13:35:11.434Z,15.06
2023-02-19T13:38:09.264Z,14.95
2023-02-19T13:41:07.178Z,14.87
2023-02-19T13:44:05.324Z,14.77
2023-02-19T13:47:06.733Z,14.67
2023-02-19T13:50:04.244Z,14.59
2023-02-19T13:53:02.503Z,14.47
2023-02-19T13:56:00.367Z,14.41
2023-02-19T13:58:58.876Z,14.31
2023-02-19T14:01:56.912Z,14.20
2023-02-19T14:04:55.773Z,14.10
2023-02-19T14:07:57.952Z,13.94
2023-02-19T14:10:57.961Z,13.82
2023-02-19T14:13:56.346Z,13.73
2023-02-19T14:16:54.779Z,13.61
2023-02-19T14:19:57.576Z,13.50
2023-02-19T14:23:01.777Z,13.42
2023-02-19T14:26:00.232Z,13.35
2023-02-19T14:28:59.763Z,13.28
2023-02-19T14:31:59.182Z,13.19
2023-02-19T14:34:59.023Z,13.10
2023-02-19T14:37:59.153Z,13.04
2023-02-19T14:40:57.425Z,12.94
2023-02-19T14:43:55.516Z,12.84
2023-02-19T14:46:53.756Z,12.74
2023-02-19T14:49:52.137Z,12.63
2023-02-19T14:52:49.935Z,12.51
2023-02-19T14:55:48.995Z,12.40
2023-02-19T14:58:48.409Z,12.30
2023-02-19T15:01:46.476Z,12.18
2023-02-19T15:04:46.004Z,12.04
2023-02-19T15:07:43.944Z,11.92
2023-02-19T15:10:42.032Z,11.82
2023-02-19T15:13:46.253Z,11.71
2023-02-19T15:16:45.048Z,11.61
2023-02-19T15:19:46.397Z,11.54
2023-02-19T15:22:44.821Z,11.43
2023-02-19T15:25:46.336Z,11.35
2023-02-19T15:28:46.230Z,11.29
2023-02-19T15:31:48.201Z,11.22
2023-02-19T15:34:46.913Z,11.13
2023-02-19T15:37:45.293Z,11.04
2023-02-19T15:40:43.792Z,10.98
2023-02-19T15:43:46.099Z,10.92
2023-02-19T15:46:44.860Z,10.88
2023-02-19T15:49:44.043Z,10.84
2023-02-19T15:52:42.547Z,10.78
2023-02-19T15:55:40.491Z,10.70
2023-02-19T15:58:41.390Z,10.60
2023-02-19T16:01:39.915Z,10.42
2023-02-19T16:04:38.203Z,10.23
2023-02-19T16:07:39.964Z,10.09
2023-02-19T16:10:38.027Z,9.97
2023-02-19T16:13:40.022Z,9.89
2023-02-19T16:16:38.514Z,9.83
2023-02-19T16:19:36.815Z,9.81
2023-02-19T16:22:35.173Z,9.77
2023-02-19T16:25:33.925Z,9.70
2023-02-19T16:28:34.896Z,9.62
2023-02-19T16:31:34.750Z,9.56
2023-02-19T16:34:35.211Z,9.49
2023-02-19T16:37:33.725Z,9.42
2023-02-19T16:40:32.812Z,9.36
2023-02-19T16:43:32.429Z,9.33
2023-02-19T16:46:31.444Z,9.34
2023-02-19T16:49:29.813Z,9.34
2023-02-19T16:52:28.893Z,9.35
2023-02-19T16:55:27.591Z,9.35
2023-02-19T16:58:26.900Z,9.34
2023-02-19T17:01:26.040Z,9.32
2023-02-19T17:04:23.833Z,9.31
2023-02-19T17:07:23.033Z,9.33
2023-02-19T17:10:21.397Z,9.36
2023-02-19T17:13:20.560Z,9.36
2023-02-19T17:16:20.649Z,9.38
2023-02-19T17:19:20.136Z,9.37
2023-02-19T17:22:19.282Z,9.31
2023-02-19T17:25:17.956Z,9.24
2023-02-19T17:28:16.783Z,9.19
2023-02-19T17:31:16.202Z,9.14
2023-02-19T17:34:15.860Z,9.12
2023-02-19T17:37:14.476Z,9.10
2023-02-19T17:40:16.802Z,9.09
2023-02-19T17:43:16.341Z,9.07
2023-02-19T17:46:15.979Z,9.03
2023-02-19T17:49:15.276Z,9.04
2023-02-19T17:52:17.806Z,9.05
2023-02-19T17:55:19.710Z,9.02
2023-02-19T17:58:20.146Z,9.00
2023-02-19T18:01:20.481Z,8.99
2023-02-19T18:04:19.382Z,8.92
2023-02-19T18:07:18.947Z,8.86
2023-02-19T18:10:20.632Z,8.80
2023-02-19T18:13:24.192Z,8.75
2023-02-19T18:16:25.316Z,8.72
2023-02-19T18:19:24.143Z,8.73
2023-02-19T18:22:23.141Z,8.71
2023-02-19T18:25:22.306Z,8.70
2023-02-19T18:28:21.036Z,8.70
2023-02-19T18:31:20.088Z,8.74
2023-02-19T18:34:18.209Z,8.76
2023-02-19T18:37:16.482Z,8.78
2023-02-19T18:40:15.409Z,8.80
2023-02-19T18:43:13.731Z,8.82
2023-02-19T18:46:15.442Z,8.84
2023-02-19T18:49:13.899Z,8.84
2023-02-19T18:52:15.113Z,8.85
2023-02-19T18:55:14.707Z,8.87
2023-02-19T18:58:16.789Z,8.89
2023-02-19T19:01:17.296Z,8.90
2023-02-19T19:04:16.367Z,8.86
2023-02-19T19:07:14.634Z,8.84
2023-02-19T19:10:17.132Z,8.84
2023-02-19T19:13:17.561Z,8.84
2023-02-19T19:16:16.444Z,8.84
2023-02-19T19:19:15.257Z,8.83
2023-02-19T19:22:14.126Z,8.83
2023-02-19T19:25:14.653Z,8.85
2023-02-19T19:28:13.300Z,8.89
2023-02-19T19:31:12.918Z,8.90
2023-02-19T19:34:13.643Z,8.89
2023-02-19T19:37:12.588Z,8.85
2023-02-19T19:40:11.681Z,8.84
2023-02-19T19:43:10.455Z,8.82
2023-02-19T19:46:09.807Z,8.79
2023-02-19T19:49:07.934Z,8.76
2023-02-19T19:52:06.847Z,8.76
2023-02-19T19:55:07.399Z,8.77
2023-02-19T19:58:06.988Z,8.76
2023-02-19T20:01:07.146Z,8.77
2023-02-19T20:04:05.796Z,8.79
2023-02-19T20:07:04.697Z,8.83
2023-02-19T20:10:05.195Z,8.86
2023-02-19T20:13:02.885Z,8.86
2023-02-19T20:16:02.151Z,8.90
2023-02-19T20:19:00.552Z,8.94
2023-02-19T20:21:59.190Z,8.98
2023-02-19T20:24:58.041Z,9.02
2023-02-19T20:27:57.394Z,9.03
2023-02-19T20:30:58.442Z,9.02
2023-02-19T20:33:57.389Z,9.02
2023-02-19T20:36:56.446Z,8.97
2023-02-19T20:39:56.097Z,8.92
2023-02-19T20:42:54.291Z,8.88
2023-02-19T20:45:53.816Z,8.85
2023-02-19T20:48:52.710Z,8.85
2023-02-19T20:51:51.638Z,8.85
2023-02-19T20:54:50.361Z,8.88
2023-02-19T20:57:50.937Z,8.91
2023-02-19T21:00:48.896Z,8.91
2023-02-19T21:03:49.712Z,8.86
2023-02-19T21:06:48.392Z,8.83
2023-02-19T21:09:48.821Z,8.78
2023-02-19T21:12:47.554Z,8.73
2023-02-19T21:15:47.603Z,8.65
2023-02-19T21:18:48.193Z,8.64
2023-02-19T21:21:46.081Z,8.63
2023-02-19T21:24:44.341Z,8.64
2023-02-19T21:27:42.906Z,8.64
2023-02-19T21:30:40.969Z,8.65
2023-02-19T21:33:39.367Z,8.67
2023-02-19T21:36:37.304Z,8.67
2023-02-19T21:39:35.620Z,8.68
2023-02-19T21:42:33.897Z,8.68
2023-02-19T21:45:32.287Z,8.63
2023-02-19T21:48:29.845Z,8.63
2023-02-19T21:51:28.702Z,8.64
2023-02-19T21:54:27.025Z,8.66
2023-02-19T21:57:24.856Z,8.68
2023-02-19T22:00:24.063Z,8.67
2023-02-19T22:03:21.709Z,8.69
2023-02-19T22:06:19.818Z,8.70
2023-02-19T22:09:17.300Z,8.69
2023-02-19T22:12:15.361Z,8.72
2023-02-19T22:15:12.905Z,8.74
2023-02-19T22:18:10.930Z,8.64
2023-02-19T22:21:08.383Z,8.51
2023-02-19T22:24:06.216Z,8.36
2023-02-19T22:27:03.706Z,8.27
2023-02-19T22:30:01.540Z,8.17
2023-02-19T22:32:59.309Z,8.13
2023-02-19T22:35:56.757Z,8.10
2023-02-19T22:38:54.406Z,8.06
2023-02-19T22:41:51.872Z,8.06
2023-02-19T22:44:49.537Z,8.06
2023-02-19T22:47:47.080Z,8.08
2023-02-19T22:50:44.889Z,8.13
2023-02-19T22:53:42.351Z,8.16
2023-02-19T22:56:39.987Z,8.17
2023-02-19T22:59:37.694Z,8.15
2023-02-19T23:02:35.173Z,8.10
2023-02-19T23:05:33.317Z,8.04
2023-02-19T23:08:30.758Z,7.97
2023-02-19T23:11:28.569Z,7.94
2023-02-19T23:14:26.041Z,7.92
2023-02-19T23:17:23.870Z,7.89
2023-02-19T23:20:21.307Z,7.90
2023-02-19T23:23:18.963Z,7.93
2023-02-19T23:26:18.787Z,7.93
2023-02-19T23:29:16.798Z,7.92
2023-02-19T23:32:14.659Z,7.90
2023-02-19T23:35:12.134Z,7.85
2023-02-19T23:38:10.184Z,7.81
2023-02-19T23:41:07.616Z,7.79
2023-02-19T23:44:05.414Z,7.80
2023-02-19T23:47:02.892Z,7.80
2023-02-19T23:50:00.534Z,7.80
2023-02-19T23:52:59.294Z,7.77
2023-02-19T23:55:57.083Z,7.71
2023-02-19T23:58:54.741Z,7.64
